If you wish to contribute or participate in the discussions about articles you are invited to join SKYbrary as a registered user

 Actions

Osan Air Base

From SKYbrary Wiki

RKSO
Airport
ICAO: RKSO – IATA: OSN
Summary
Name Osan Air Base
Region
Territory South Korea KR.gif
Location , Kyonggi-do
Serving Osan
Elevation 11.582 m <br />38 ft <br />38 ft11.582 m <br />
Type large airport
Coordinates 37° 5' 26.22" N, 127° 1' 46.54" E
Runways
Designator Length Width Surface ROPS
9/27 2744 m9,002.625 ft <br /> 46 m150.919 ft <br /> CON yes/yes


METAR
Observation RKSO 161259Z AUTO 04004KT 7SM -RA SCT006 OVC013 17/17 A2956 RMK AO2 RAB57 SLP013 $
Station Osan Ab
Date/Time 16 May 2021 12:59:00
Wind direction 40°
Wind speed 04 kts
Lowest cloud amount scattered clouds
Temperature 17°C
Dew point 17°C
Humidity 100%
QNH hPa
Weather condition light rain